Bookmark and Share
Track history (hours):
 

Fti Berlin

Last reported at 2014-Apr-24 18:17 UTC. Time now 2014-Apr-24 20:10 UTC.
Position N 43°44' E 007°26'.

Length 140 m; draft 5 m.

Type: Passenger vessel. MMSI: 248277000.

NotesDate/timePositionNaut miles runAvg speedWind from/ knotsBaromVisibWave heightAir tempDewpointWater temp
2014-Apr-24 18:17N 43°44' E 007°26'0 0.0
2014-Apr-24 17:11N 43°44' E 007°26'0 0.3
2014-Apr-24 16:33N 43°44' E 007°26'8 7.9
2014-Apr-24 15:33N 43°40' E 007°17'2 1.6
2014-Apr-24 14:33N 43°42' E 007°17'0 0.0
2014-Apr-24 13:33N 43°42' E 007°17'0 0.0
2014-Apr-24 12:33N 43°42' E 007°17'0 0.0
2014-Apr-24 11:33N 43°42' E 007°17'0 0.0
2014-Apr-24 10:33N 43°42' E 007°17'0 0.0
2014-Apr-24 09:33N 43°42' E 007°17'0 0.0
2014-Apr-24 08:33N 43°42' E 007°17'0 0.0
2014-Apr-24 07:33N 43°42' E 007°17'0 0.0
2014-Apr-24 06:33N 43°42' E 007°17'1 0.6
2014-Apr-24 05:33N 43°41' E 007°17'1010.2
2014-Apr-24 04:33N 43°32' E 007°23'1110.8
2014-Apr-24 03:32N 43°22' E 007°30'1310.9
2014-Apr-24 02:22N 43°10' E 007°38'1110.9
2014-Apr-24 01:23N 43°01' E 007°45'911.1
2014-Apr-24 00:33N 42°53' E 007°51'2611.5
2014-Apr-23 22:15N 42°30' E 008°07'2511.7
2014-Apr-23 20:09N 42°08' E 008°23'711.9
2014-Apr-23 19:33N 42°01' E 008°27'  
2014-Apr-21 14:24N 39°06' E 009°41'1412.0
2014-Apr-21 13:15N 39°02' E 009°24'1014.5
2014-Apr-21 12:33N 39°06' E 009°12'8 8.0
2014-Apr-21 11:31N 39°13' E 009°06'0 0.0
2014-Apr-21 10:31N 39°13' E 009°06'0 0.0
2014-Apr-21 09:31N 39°13' E 009°06'0 0.0
2014-Apr-21 08:31N 39°13' E 009°06'0 0.0
2014-Apr-21 07:31N 39°13' E 009°06'0 0.0
2014-Apr-21 06:31N 39°13' E 009°06'0 0.0
2014-Apr-21 05:31N 39°13' E 009°06'0 0.0
2014-Apr-21 04:33N 39°13' E 009°06'7 7.0
2014-Apr-21 03:33N 39°06' E 009°08'1514.9
2014-Apr-21 02:33N 38°52' E 009°14'1514.6
2014-Apr-21 01:33N 38°38' E 009°21'1514.5
2014-Apr-21 00:29N 38°24' E 009°27'70 5.0
2014-Apr-20 10:24N 37°16' E 009°52'58 4.5
2014-Apr-19 21:28N 38°03' E 009°09'2711.8
2014-Apr-19 19:08N 38°24' E 008°46'711.7
2014-Apr-19 18:33N 38°29' E 008°41'1211.7
2014-Apr-19 17:33N 38°38' E 008°31'1211.7
2014-Apr-19 16:33N 38°47' E 008°21'1311.6
2014-Apr-19 15:27N 38°58' E 008°14'2211.3
2014-Apr-19 13:31N 39°19' E 008°06'1211.2
2014-Apr-19 12:29N 39°31' E 008°04'1311.4
2014-Apr-19 11:22N 39°44' E 008°02'1411.4
2014-Apr-19 10:09N 39°57' E 007°59'20212.1
2014-Apr-18 17:28N 43°17' E 007°22'1112.2
2014-Apr-18 16:33N 43°28' E 007°19'1212.1
2014-Apr-18 15:33N 43°40' E 007°17'2 1.6
2014-Apr-18 14:29N 43°42' E 007°17'0 0.0
2014-Apr-18 13:29N 43°42' E 007°17'0 0.0
2014-Apr-18 12:29N 43°42' E 007°17'0 0.0
2014-Apr-18 11:29N 43°42' E 007°17'0 0.0
2014-Apr-18 10:29N 43°42' E 007°17'0 0.0
2014-Apr-18 09:29N 43°42' E 007°17'0 0.0
2014-Apr-18 08:29N 43°42' E 007°17'0 0.0
2014-Apr-18 07:29N 43°42' E 007°17'0 0.0
2014-Apr-18 06:29N 43°42' E 007°17'0 0.0
2014-Apr-18 05:29N 43°42' E 007°17'0 0.0
2014-Apr-18 04:29N 43°42' E 007°17'0 0.0
2014-Apr-18 03:33N 43°42' E 007°17'5 5.1
2014-Apr-18 02:33N 43°38' E 007°22'1313.2
2014-Apr-18 01:33N 43°34' E 007°40'1413.7
2014-Apr-18 00:33N 43°29' E 007°57'1413.7
2014-Apr-17 23:33N 43°23' E 008°15'1413.9
2014-Apr-17 22:33N 43°18' E 008°32'1413.8
2014-Apr-17 21:33N 43°13' E 008°50'2813.7
2014-Apr-17 19:32N 43°03' E 009°25'1813.8
2014-Apr-17 18:14N 42°55' E 009°47'1413.7
2014-Apr-17 17:13N 42°53' E 010°06'913.5
2014-Apr-17 16:32N 42°51' E 010°19'4 0.3
2014-Apr-17 05:20N 42°52' E 010°14'12012.3
2014-Apr-16 19:34N 40°56' E 009°35'3 2.7
2014-Apr-16 18:29N 40°55' E 009°31'0 0.0
2014-Apr-16 17:29N 40°55' E 009°31'0 0.0
2014-Apr-16 16:29N 40°55' E 009°31'0 0.0
2014-Apr-16 15:29N 40°55' E 009°31'0 0.0
2014-Apr-16 14:29N 40°55' E 009°31'0 0.0
2014-Apr-16 13:29N 40°55' E 009°31'0 0.0
2014-Apr-16 12:29N 40°55' E 009°31'0 0.0
2014-Apr-16 11:29N 40°55' E 009°31'0 0.0
2014-Apr-16 10:33N 40°55' E 009°31'16911.0
2014-Apr-15 19:09N 40°42' E 013°14'711.4
2014-Apr-15 18:33N 40°41' E 013°23'1211.9
2014-Apr-15 17:33N 40°40' E 013°38'1212.1
2014-Apr-15 16:33N 40°39' E 013°54'1212.5
2014-Apr-15 15:33N 40°39' E 014°11'9 8.9
2014-Apr-15 14:31N 40°38' E 014°23'0 0.0
2014-Apr-15 12:31N 40°38' E 014°23'0 0.0
2014-Apr-15 09:31N 40°38' E 014°23'0 0.0
2014-Apr-15 07:31N 40°38' E 014°23'0 0.0
2014-Apr-15 05:34N 40°38' E 014°23'2 1.1
2014-Apr-15 03:34N 40°38' E 014°20'1110.4
2014-Apr-15 02:33N 40°28' E 014°21'  

Dump ship's entire track history

sailing weather and tide predictions

Fti Berlin — 9HA2295 — position and weather